createdAt,value
2023-01-26T00:01:29.262Z,-1.29
2023-01-26T00:03:58.251Z,-1.32
2023-01-26T00:06:26.645Z,-1.22
2023-01-26T00:08:57.195Z,-1.31
2023-01-26T00:11:27.708Z,-1.29
2023-01-26T00:13:55.859Z,-1.28
2023-01-26T00:16:23.931Z,-1.23
2023-01-26T00:18:52.132Z,-1.28
2023-01-26T00:21:21.556Z,-1.29
2023-01-26T00:23:50.480Z,-1.34
2023-01-26T00:26:22.635Z,-1.07
2023-01-26T00:28:51.339Z,-0.95
2023-01-26T00:31:21.451Z,-1.17
2023-01-26T00:33:49.696Z,-1.28
2023-01-26T00:36:17.620Z,-1.23
2023-01-26T00:38:45.519Z,-1.24
2023-01-26T00:41:34.340Z,-1.34
2023-01-26T00:44:03.753Z,-1.26
2023-01-26T00:46:31.687Z,-1.14
2023-01-26T00:49:00.926Z,-1.09
2023-01-26T00:51:29.018Z,-1.12
2023-01-26T00:53:56.923Z,-1.09
2023-01-26T00:56:28.110Z,-1.23
2023-01-26T00:58:56.154Z,-1.20
2023-01-26T01:01:25.437Z,-1.22
2023-01-26T01:03:53.350Z,-1.20
2023-01-26T01:06:21.344Z,-1.12
2023-01-26T01:08:49.251Z,-1.17
2023-01-26T01:11:17.154Z,-1.27
2023-01-26T01:13:45.187Z,-1.16
2023-01-26T01:16:14.701Z,-1.11
2023-01-26T01:18:44.348Z,-1.05
2023-01-26T01:21:15.052Z,-1.01
2023-01-26T01:23:43.495Z,-0.90
2023-01-26T01:26:11.613Z,-1.15
2023-01-26T01:28:40.078Z,-1.05
2023-01-26T01:31:08.397Z,-0.99
2023-01-26T01:33:36.485Z,-1.03
2023-01-26T01:36:07.864Z,-0.93
2023-01-26T01:38:36.239Z,-0.82
2023-01-26T01:41:04.448Z,-0.86
2023-01-26T01:43:32.624Z,-0.79
2023-01-26T01:46:01.948Z,-0.91
2023-01-26T01:48:32.909Z,-0.96
2023-01-26T01:51:06.954Z,-1.15
2023-01-26T01:53:37.857Z,-0.98
2023-01-26T01:56:10.875Z,-1.05
2023-01-26T01:58:41.564Z,-1.08
2023-01-26T02:01:09.672Z,-0.93
2023-01-26T02:03:38.571Z,-0.92
2023-01-26T02:06:10.054Z,-1.03
2023-01-26T02:08:39.912Z,-1.00
2023-01-26T02:11:09.774Z,-1.15
2023-01-26T02:13:39.308Z,-1.04
2023-01-26T02:16:07.700Z,-0.88
2023-01-26T02:18:35.689Z,-0.78
2023-01-26T02:21:05.186Z,-0.72
2023-01-26T02:23:42.008Z,-0.93
2023-01-26T02:26:13.259Z,-0.80
2023-01-26T02:28:41.875Z,-0.84
2023-01-26T02:31:11.410Z,-1.07
2023-01-26T02:33:39.415Z,-1.01
2023-01-26T02:36:08.982Z,-1.06
2023-01-26T02:38:42.084Z,-1.02
2023-01-26T02:41:13.556Z,-1.06
2023-01-26T02:43:41.078Z,-0.88
2023-01-26T02:46:09.049Z,-0.98
2023-01-26T02:48:54.459Z,-1.09
2023-01-26T02:51:22.497Z,-0.92
2023-01-26T02:53:50.374Z,-0.92
2023-01-26T02:56:18.627Z,-0.95
2023-01-26T02:58:46.574Z,-0.97
2023-01-26T03:01:14.507Z,-0.91
2023-01-26T03:03:45.676Z,-0.93
2023-01-26T03:06:15.259Z,-0.89
2023-01-26T03:08:43.270Z,-0.90
2023-01-26T03:11:11.153Z,-0.99
2023-01-26T03:13:40.445Z,-0.97
2023-01-26T03:16:10.291Z,-0.92
2023-01-26T03:18:55.501Z,-0.78
2023-01-26T03:21:41.202Z,-0.79
2023-01-26T03:24:29.943Z,-0.66
2023-01-26T03:27:15.179Z,-0.79
2023-01-26T03:29:44.610Z,-0.73
2023-01-26T03:32:12.737Z,-0.71
2023-01-26T03:34:40.633Z,-0.79
2023-01-26T03:37:08.590Z,-0.74
2023-01-26T03:39:53.820Z,-0.84
2023-01-26T03:42:39.418Z,-0.77
2023-01-26T03:45:26.877Z,-0.73
2023-01-26T03:48:12.359Z,-0.63
2023-01-26T03:50:57.691Z,-0.76
2023-01-26T03:53:42.989Z,-0.75
2023-01-26T03:56:18.415Z,-0.61
2023-01-26T03:58:46.784Z,-0.69
2023-01-26T04:01:20.057Z,-0.50
2023-01-26T04:04:06.698Z,-0.62
2023-01-26T04:06:52.812Z,-0.58
2023-01-26T04:09:21.123Z,-0.60
2023-01-26T04:11:49.580Z,-0.57
2023-01-26T04:14:38.175Z,-0.62
2023-01-26T04:17:37.615Z,-0.56
2023-01-26T04:20:23.983Z,-0.49
2023-01-26T04:22:51.892Z,-0.57
2023-01-26T04:25:21.715Z,-0.55
2023-01-26T04:27:49.662Z,-0.69
2023-01-26T04:30:19.027Z,-0.67
2023-01-26T04:32:48.372Z,-0.66
2023-01-26T04:35:16.340Z,-0.56
2023-01-26T04:37:44.314Z,-0.66
2023-01-26T04:40:13.430Z,-0.56
2023-01-26T04:42:41.593Z,-0.58
2023-01-26T04:45:11.534Z,-0.67
2023-01-26T04:47:39.508Z,-0.66
2023-01-26T04:50:11.001Z,-0.66
2023-01-26T04:52:39.007Z,-0.72
2023-01-26T04:55:07.379Z,-0.64
2023-01-26T04:57:35.311Z,-0.62
2023-01-26T05:00:04.851Z,-0.52
2023-01-26T05:02:32.767Z,-0.67
2023-01-26T05:05:00.818Z,-0.69
2023-01-26T05:07:30.093Z,-0.66
2023-01-26T05:09:57.977Z,-0.51
2023-01-26T05:12:34.600Z,-0.62
2023-01-26T05:15:02.496Z,-0.49
2023-01-26T05:17:30.401Z,-0.51
2023-01-26T05:19:58.378Z,-0.59
2023-01-26T05:22:26.291Z,-0.54
2023-01-26T05:24:55.618Z,-0.46
2023-01-26T05:27:23.518Z,-0.47
2023-01-26T05:29:52.247Z,-0.41
2023-01-26T05:32:20.555Z,-0.46
2023-01-26T05:34:48.455Z,-0.48
2023-01-26T05:37:16.350Z,-0.54
2023-01-26T05:39:44.279Z,-0.54
2023-01-26T05:42:14.004Z,-0.36
2023-01-26T05:44:41.928Z,-0.38
2023-01-26T05:47:09.869Z,-0.49
2023-01-26T05:49:38.829Z,-0.43
2023-01-26T05:52:10.561Z,-0.43
2023-01-26T05:54:38.504Z,-0.49
2023-01-26T05:57:06.423Z,-0.36
2023-01-26T05:59:35.772Z,-0.33
2023-01-26T06:02:03.669Z,-0.31
2023-01-26T06:04:31.890Z,-0.26
2023-01-26T06:07:00.931Z,-0.36
2023-01-26T06:09:28.884Z,-0.47
2023-01-26T06:11:57.917Z,-0.40
2023-01-26T06:14:25.864Z,-0.48
2023-01-26T06:16:56.788Z,-0.34
2023-01-26T06:19:24.846Z,-0.31
2023-01-26T06:21:53.540Z,-0.29
2023-01-26T06:24:21.557Z,-0.32
2023-01-26T06:26:49.851Z,-0.31
2023-01-26T06:29:17.855Z,-0.29
2023-01-26T06:31:45.827Z,-0.41
2023-01-26T06:34:15.456Z,-0.36
2023-01-26T06:36:43.398Z,-0.39
2023-01-26T06:39:13.218Z,-0.28
2023-01-26T06:41:41.462Z,-0.18
2023-01-26T06:44:09.944Z,-0.27
2023-01-26T06:46:37.975Z,-0.37
2023-01-26T06:49:06.314Z,-0.35
2023-01-26T06:51:47.672Z,-0.31
2023-01-26T06:54:16.423Z,-0.12
2023-01-26T06:56:44.324Z,-0.22
2023-01-26T06:59:12.262Z,-0.37
2023-01-26T07:01:42.882Z,-0.22
2023-01-26T07:04:10.770Z,-0.02
2023-01-26T07:06:40.119Z,-0.26
2023-01-26T07:09:08.098Z,-0.28
2023-01-26T07:11:36.004Z,-0.29
2023-01-26T07:14:03.923Z,-0.32
2023-01-26T07:16:33.738Z,-0.24
2023-01-26T07:19:01.809Z,-0.27
2023-01-26T07:21:29.969Z,-0.30
2023-01-26T07:23:59.250Z,-0.24
2023-01-26T07:26:27.225Z,-0.26
2023-01-26T07:28:55.252Z,-0.27
2023-01-26T07:31:23.236Z,-0.18
2023-01-26T07:33:51.356Z,-0.19
2023-01-26T07:36:19.318Z,-0.04
2023-01-26T07:38:47.201Z,0.10
2023-01-26T07:41:16.481Z,0.16
2023-01-26T07:43:44.538Z,-0.02
2023-01-26T07:46:12.634Z,-0.03
2023-01-26T07:48:41.787Z,-0.05
2023-01-26T07:51:11.290Z,0.04
2023-01-26T07:53:41.174Z,0.00
2023-01-26T07:56:11.097Z,-0.02
2023-01-26T07:58:40.743Z,-0.04
2023-01-26T08:01:10.977Z,-0.02
2023-01-26T08:03:38.947Z,-0.01
2023-01-26T08:06:09.631Z,0.04
2023-01-26T08:08:40.978Z,0.08
2023-01-26T08:11:09.370Z,-0.05
2023-01-26T08:13:37.371Z,-0.01
2023-01-26T08:16:09.618Z,-0.07
2023-01-26T08:18:37.616Z,0.07
2023-01-26T08:21:06.193Z,0.12
2023-01-26T08:23:34.753Z,0.06
2023-01-26T08:26:03.367Z,0.00
2023-01-26T08:28:31.305Z,0.05
2023-01-26T08:31:06.488Z,0.08
2023-01-26T08:33:35.743Z,0.12
2023-01-26T08:36:04.058Z,0.15
2023-01-26T08:38:32.730Z,0.13
2023-01-26T08:41:00.713Z,0.21
2023-01-26T08:43:28.906Z,0.19
2023-01-26T08:45:56.896Z,0.17
2023-01-26T08:48:26.467Z,0.17
2023-01-26T08:50:55.204Z,0.18
2023-01-26T08:53:23.480Z,0.21
2023-01-26T08:55:51.989Z,0.27
2023-01-26T08:58:20.521Z,0.24
2023-01-26T09:00:49.182Z,0.33
2023-01-26T09:03:17.220Z,0.29
2023-01-26T09:05:46.505Z,0.28
2023-01-26T09:08:14.448Z,0.29
2023-01-26T09:10:45.192Z,0.33
2023-01-26T09:13:13.199Z,0.29
2023-01-26T09:15:41.157Z,0.37
2023-01-26T09:18:09.037Z,0.34
2023-01-26T09:20:36.945Z,0.29
2023-01-26T09:23:06.219Z,0.28
2023-01-26T09:25:37.530Z,0.33
2023-01-26T09:28:06.624Z,0.37
2023-01-26T09:30:35.458Z,0.37
2023-01-26T09:33:05.140Z,0.40
2023-01-26T09:35:33.267Z,0.44
2023-01-26T09:38:01.215Z,0.50
2023-01-26T09:40:38.422Z,0.57
2023-01-26T09:43:16.200Z,0.50
2023-01-26T09:45:49.435Z,0.53
2023-01-26T09:48:25.459Z,0.48
2023-01-26T09:50:57.947Z,0.51
2023-01-26T09:53:28.416Z,0.53
2023-01-26T09:55:57.871Z,0.55
2023-01-26T09:58:33.082Z,0.55
2023-01-26T10:01:02.433Z,0.56
2023-01-26T10:03:34.071Z,0.59
2023-01-26T10:06:06.307Z,0.57
2023-01-26T10:08:36.417Z,0.58
2023-01-26T10:11:09.003Z,0.57
2023-01-26T10:13:37.182Z,0.61
2023-01-26T10:16:08.579Z,0.57
2023-01-26T10:18:40.659Z,0.61
2023-01-26T10:21:09.048Z,0.60
2023-01-26T10:23:37.244Z,0.59
2023-01-26T10:26:14.180Z,0.63
2023-01-26T10:28:43.050Z,0.58
2023-01-26T10:31:15.740Z,0.67
2023-01-26T10:33:50.120Z,0.70
2023-01-26T10:36:18.216Z,0.70
2023-01-26T10:38:46.722Z,0.77
2023-01-26T10:41:27.209Z,0.77
2023-01-26T10:43:56.525Z,0.68
2023-01-26T10:46:26.522Z,0.71
2023-01-26T10:48:55.105Z,0.75
2023-01-26T10:51:29.695Z,0.79
2023-01-26T10:54:20.862Z,0.79
2023-01-26T10:56:52.688Z,0.78
2023-01-26T10:59:29.364Z,0.83
2023-01-26T11:01:58.600Z,0.85
2023-01-26T11:04:27.156Z,0.86
2023-01-26T11:06:55.333Z,0.87
2023-01-26T11:09:27.513Z,0.94
2023-01-26T11:12:02.388Z,0.90
2023-01-26T11:14:30.982Z,0.95
2023-01-26T11:17:02.864Z,0.93
2023-01-26T11:19:43.910Z,0.95
2023-01-26T11:22:14.888Z,0.97
2023-01-26T11:24:47.692Z,0.95
2023-01-26T11:27:30.024Z,1.03
2023-01-26T11:30:28.249Z,0.98
2023-01-26T11:33:01.818Z,1.09
2023-01-26T11:35:33.906Z,1.09
2023-01-26T11:38:11.050Z,1.12
2023-01-26T11:40:42.689Z,1.08
2023-01-26T11:43:48.464Z,1.15
2023-01-26T11:46:37.578Z,1.16
2023-01-26T11:49:16.241Z,1.17
2023-01-26T11:51:52.050Z,1.17
2023-01-26T11:54:29.643Z,1.21
2023-01-26T11:57:04.637Z,1.22
2023-01-26T11:59:37.585Z,1.24
2023-01-26T12:02:15.226Z,1.30
2023-01-26T12:04:45.513Z,1.26
2023-01-26T12:07:16.610Z,1.28
2023-01-26T12:09:47.282Z,1.34
2023-01-26T12:12:18.626Z,1.36
2023-01-26T12:14:52.490Z,1.35
2023-01-26T12:17:31.659Z,1.42
2023-01-26T12:20:05.669Z,1.50
2023-01-26T12:22:36.411Z,1.48
2023-01-26T12:25:19.477Z,1.50
2023-01-26T12:27:52.550Z,1.56
2023-01-26T12:30:29.853Z,1.60
2023-01-26T12:32:57.912Z,1.61
2023-01-26T12:35:36.686Z,1.59
2023-01-26T12:38:17.557Z,1.76
2023-01-26T12:40:54.978Z,1.70
2023-01-26T12:43:36.686Z,1.78
2023-01-26T12:46:08.017Z,1.95
2023-01-26T12:48:41.337Z,1.99
2023-01-26T12:51:11.750Z,2.01
2023-01-26T12:53:47.035Z,2.11
2023-01-26T12:56:21.719Z,2.04
2023-01-26T12:58:51.743Z,2.08
2023-01-26T13:01:23.911Z,2.21
2023-01-26T13:03:55.317Z,2.15
2023-01-26T13:06:24.824Z,2.11
2023-01-26T13:09:01.427Z,2.21
2023-01-26T13:11:47.076Z,2.29
2023-01-26T13:14:56.746Z,2.44
2023-01-26T13:17:50.693Z,2.37
2023-01-26T13:20:51.744Z,2.52
2023-01-26T13:23:53.113Z,2.57
2023-01-26T13:26:52.013Z,2.57
2023-01-26T13:29:34.640Z,2.60
2023-01-26T13:32:53.346Z,2.85
2023-01-26T13:35:24.403Z,2.91
2023-01-26T13:37:59.296Z,2.79
2023-01-26T13:40:31.839Z,2.78
2023-01-26T13:43:07.654Z,2.71
2023-01-26T13:45:44.122Z,2.79
2023-01-26T13:48:16.266Z,2.66
2023-01-26T13:50:47.176Z,2.67
2023-01-26T13:53:37.487Z,2.69
2023-01-26T13:56:06.984Z,2.69
2023-01-26T13:58:35.262Z,2.66
2023-01-26T14:01:05.772Z,2.89
2023-01-26T14:03:34.268Z,3.02
2023-01-26T14:06:06.203Z,3.00
2023-01-26T14:08:34.686Z,2.84
2023-01-26T14:11:04.483Z,2.91
2023-01-26T14:13:34.952Z,3.02
2023-01-26T14:16:07.713Z,2.97
2023-01-26T14:18:37.322Z,2.85
2023-01-26T14:21:15.084Z,2.99
2023-01-26T14:23:43.007Z,3.06
2023-01-26T14:26:18.494Z,3.15
2023-01-26T14:28:47.014Z,3.08
2023-01-26T14:31:20.974Z,3.00
2023-01-26T14:33:49.437Z,3.16
2023-01-26T14:36:20.536Z,3.20
2023-01-26T14:38:49.595Z,3.21
2023-01-26T14:41:19.985Z,3.20
2023-01-26T14:43:49.955Z,3.07
2023-01-26T14:46:19.411Z,2.84
2023-01-26T14:48:50.754Z,2.91
2023-01-26T14:51:22.463Z,2.89
2023-01-26T14:53:51.331Z,2.98
2023-01-26T14:56:20.280Z,2.94
2023-01-26T14:58:51.971Z,2.97
2023-01-26T15:01:23.862Z,3.19
2023-01-26T15:03:52.500Z,3.26
2023-01-26T15:06:23.917Z,3.20
2023-01-26T15:09:00.480Z,3.28
2023-01-26T15:11:48.669Z,3.13
2023-01-26T15:14:33.284Z,3.26
2023-01-26T15:17:01.347Z,3.13
2023-01-26T15:19:34.343Z,3.24
2023-01-26T15:22:03.656Z,3.19
2023-01-26T15:24:31.608Z,3.24
2023-01-26T15:27:06.789Z,3.10
2023-01-26T15:29:35.234Z,3.26
2023-01-26T15:32:03.448Z,3.08
2023-01-26T15:34:36.402Z,2.96
2023-01-26T15:37:28.493Z,2.95
2023-01-26T15:39:56.448Z,2.94
2023-01-26T15:42:27.680Z,2.97
2023-01-26T15:44:55.843Z,2.95
2023-01-26T15:47:23.793Z,2.94
2023-01-26T15:49:51.742Z,2.93
2023-01-26T15:52:23.429Z,3.04
2023-01-26T15:54:51.839Z,3.01
2023-01-26T15:57:19.912Z,2.94
2023-01-26T15:59:47.806Z,2.93
2023-01-26T16:02:17.536Z,3.05
2023-01-26T16:04:46.255Z,2.95
2023-01-26T16:07:15.573Z,3.01
2023-01-26T16:09:45.064Z,2.98
2023-01-26T16:12:30.341Z,2.95
2023-01-26T16:14:59.315Z,2.95
2023-01-26T16:17:27.251Z,2.96
2023-01-26T16:19:55.180Z,2.96
2023-01-26T16:22:23.106Z,2.95
2023-01-26T16:24:52.401Z,2.86
2023-01-26T16:27:21.691Z,2.85
2023-01-26T16:29:49.600Z,2.87
2023-01-26T16:32:28.629Z,2.99
2023-01-26T16:34:56.621Z,2.96
2023-01-26T16:37:24.564Z,2.86
2023-01-26T16:39:53.843Z,2.90
2023-01-26T16:42:22.271Z,2.97
2023-01-26T16:44:50.247Z,2.95
2023-01-26T16:47:18.174Z,2.93
2023-01-26T16:49:46.115Z,2.90
2023-01-26T16:52:14.068Z,2.90
2023-01-26T16:54:41.967Z,2.89
2023-01-26T16:57:11.252Z,2.88
2023-01-26T16:59:40.129Z,2.87
2023-01-26T17:02:13.409Z,2.88
2023-01-26T17:04:41.340Z,2.87
2023-01-26T17:07:09.248Z,2.87
2023-01-26T17:09:37.147Z,2.85
2023-01-26T17:12:06.295Z,2.88
2023-01-26T17:14:35.615Z,2.83
2023-01-26T17:17:03.631Z,2.89
2023-01-26T17:19:31.520Z,2.82
2023-01-26T17:21:59.478Z,2.82
2023-01-26T17:24:27.430Z,2.88
2023-01-26T17:26:55.436Z,2.85
2023-01-26T17:29:23.319Z,2.82
2023-01-26T17:31:52.707Z,2.80
2023-01-26T17:34:21.555Z,2.81
2023-01-26T17:36:49.454Z,2.81
2023-01-26T17:39:18.804Z,2.79
2023-01-26T17:41:46.769Z,2.81
2023-01-26T17:44:15.278Z,2.81
2023-01-26T17:46:43.319Z,2.82
2023-01-26T17:49:12.617Z,2.82
2023-01-26T17:51:40.582Z,2.85
2023-01-26T17:54:08.494Z,2.81
2023-01-26T17:56:36.399Z,2.84
2023-01-26T17:59:04.397Z,2.81
2023-01-26T18:01:32.334Z,2.81
2023-01-26T18:04:00.265Z,2.79
2023-01-26T18:06:29.716Z,2.81
2023-01-26T18:08:57.856Z,2.82
2023-01-26T18:11:25.790Z,2.79
2023-01-26T18:13:55.421Z,2.83
2023-01-26T18:16:23.496Z,2.83
2023-01-26T18:18:55.710Z,2.80
2023-01-26T18:21:25.024Z,2.82
2023-01-26T18:23:56.082Z,2.82
2023-01-26T18:26:25.756Z,2.80
2023-01-26T18:28:54.775Z,2.82
2023-01-26T18:31:24.403Z,2.82
2023-01-26T18:33:52.692Z,2.86
2023-01-26T18:36:21.893Z,2.83
2023-01-26T18:38:51.579Z,2.83
2023-01-26T18:41:22.232Z,2.87
2023-01-26T18:43:51.914Z,2.82
2023-01-26T18:46:20.307Z,2.82
2023-01-26T18:48:48.243Z,2.84
2023-01-26T18:51:18.220Z,2.81
2023-01-26T18:53:46.334Z,2.80
2023-01-26T18:56:16.376Z,2.80
2023-01-26T18:58:45.686Z,2.78
2023-01-26T19:01:14.953Z,2.77
2023-01-26T19:03:47.305Z,2.77
2023-01-26T19:06:19.919Z,2.76
2023-01-26T19:08:49.011Z,2.77
2023-01-26T19:11:16.925Z,2.77
2023-01-26T19:13:48.814Z,2.77
2023-01-26T19:16:16.971Z,2.80
2023-01-26T19:18:44.938Z,2.83
2023-01-26T19:21:12.957Z,2.82
2023-01-26T19:23:42.746Z,2.80
2023-01-26T19:26:11.898Z,2.83
2023-01-26T19:28:41.510Z,2.82
2023-01-26T19:31:11.433Z,2.82
2023-01-26T19:33:39.572Z,2.80
2023-01-26T19:36:09.282Z,2.85
2023-01-26T19:38:39.368Z,2.81
2023-01-26T19:41:07.747Z,2.82
2023-01-26T19:43:35.729Z,2.83
2023-01-26T19:46:05.576Z,2.91
2023-01-26T19:48:34.943Z,2.92
2023-01-26T19:51:04.504Z,2.88
2023-01-26T19:53:33.383Z,2.89
2023-01-26T19:56:06.286Z,2.89
2023-01-26T19:58:34.231Z,3.00
2023-01-26T20:01:02.766Z,2.92
2023-01-26T20:03:30.781Z,2.93
2023-01-26T20:06:00.130Z,2.93
2023-01-26T20:08:29.246Z,2.95
2023-01-26T20:11:03.930Z,2.93
2023-01-26T20:13:32.047Z,2.98
2023-01-26T20:15:59.924Z,3.02
2023-01-26T20:18:27.851Z,3.04
2023-01-26T20:20:56.964Z,2.98
2023-01-26T20:23:27.477Z,2.97
2023-01-26T20:26:02.267Z,3.00
2023-01-26T20:28:30.541Z,3.01
2023-01-26T20:31:05.259Z,3.00
2023-01-26T20:33:33.651Z,2.99
2023-01-26T20:36:01.579Z,3.06
2023-01-26T20:38:30.902Z,3.02
2023-01-26T20:40:58.843Z,3.00
2023-01-26T20:43:26.735Z,3.03
2023-01-26T20:45:54.694Z,3.05
2023-01-26T20:48:22.611Z,3.09
2023-01-26T20:50:52.606Z,3.15
2023-01-26T20:53:20.975Z,3.10
2023-01-26T20:55:50.255Z,3.10
2023-01-26T20:58:18.213Z,3.12
2023-01-26T21:00:46.158Z,3.12
2023-01-26T21:03:14.175Z,3.12
2023-01-26T21:05:42.171Z,3.16
2023-01-26T21:08:10.075Z,3.19
2023-01-26T21:10:37.991Z,3.12
2023-01-26T21:13:07.382Z,3.16
2023-01-26T21:15:35.279Z,3.18
2023-01-26T21:18:04.088Z,3.14
2023-01-26T21:20:32.044Z,3.18
2023-01-26T21:23:00.219Z,3.18
2023-01-26T21:25:28.172Z,3.14
2023-01-26T21:27:56.169Z,3.14
2023-01-26T21:30:25.460Z,3.10
2023-01-26T21:32:53.839Z,3.22
2023-01-26T21:35:21.730Z,3.16
2023-01-26T21:37:49.791Z,3.12
2023-01-26T21:40:18.341Z,3.22
2023-01-26T21:42:46.234Z,3.19
2023-01-26T21:45:31.791Z,3.26
2023-01-26T21:48:18.535Z,3.19
2023-01-26T21:51:03.893Z,3.19
2023-01-26T21:53:31.779Z,3.20
2023-01-26T21:55:59.665Z,3.24
2023-01-26T21:58:45.206Z,3.24
2023-01-26T22:01:13.164Z,3.27
2023-01-26T22:03:42.481Z,3.21
2023-01-26T22:06:10.396Z,3.24
2023-01-26T22:08:38.322Z,3.29
2023-01-26T22:11:06.576Z,3.30
2023-01-26T22:13:36.161Z,3.23
2023-01-26T22:16:05.014Z,3.21
2023-01-26T22:18:32.997Z,3.28
2023-01-26T22:21:02.969Z,3.31
2023-01-26T22:23:32.506Z,3.33
2023-01-26T22:26:00.425Z,3.26
2023-01-26T22:28:28.295Z,3.34
2023-01-26T22:31:03.005Z,3.27
2023-01-26T22:33:31.313Z,3.31
2023-01-26T22:36:07.681Z,3.28
2023-01-26T22:38:36.416Z,3.37
2023-01-26T22:41:05.579Z,3.32
2023-01-26T22:43:34.580Z,3.33
2023-01-26T22:46:03.872Z,3.35
2023-01-26T22:48:31.861Z,3.31
2023-01-26T22:51:00.104Z,3.33
2023-01-26T22:53:29.956Z,3.27
2023-01-26T22:55:57.869Z,3.33
2023-01-26T22:58:25.831Z,3.31
2023-01-26T23:00:53.813Z,3.35
2023-01-26T23:03:22.602Z,3.32
2023-01-26T23:05:50.547Z,3.43
2023-01-26T23:08:18.465Z,3.32
2023-01-26T23:10:47.730Z,3.37
2023-01-26T23:13:15.700Z,3.44
2023-01-26T23:15:43.595Z,3.45
2023-01-26T23:18:11.462Z,3.46
2023-01-26T23:20:39.378Z,3.44
2023-01-26T23:23:07.254Z,3.49
2023-01-26T23:25:53.119Z,3.46
2023-01-26T23:28:24.079Z,3.41
2023-01-26T23:30:52.886Z,3.56
2023-01-26T23:33:21.973Z,3.54
2023-01-26T23:35:50.311Z,3.49
2023-01-26T23:38:18.486Z,3.68
2023-01-26T23:40:46.557Z,3.58
2023-01-26T23:43:16.917Z,3.60
2023-01-26T23:45:47.540Z,3.57
2023-01-26T23:48:15.953Z,3.52
2023-01-26T23:50:44.016Z,3.62
2023-01-26T23:53:12.374Z,3.59
2023-01-26T23:55:41.298Z,3.63
2023-01-26T23:58:09.240Z,3.54
